createdAt,value
2023-05-07T00:02:23.730Z,19.00
2023-05-07T00:05:09.771Z,19.00
2023-05-07T00:07:56.691Z,18.90
2023-05-07T00:10:43.777Z,18.80
2023-05-07T00:13:31.795Z,18.80
2023-05-07T00:16:17.652Z,18.80
2023-05-07T00:19:03.408Z,18.80
2023-05-07T00:21:49.004Z,18.80
2023-05-07T00:24:34.922Z,18.70
2023-05-07T00:27:20.435Z,18.70
2023-05-07T00:30:06.407Z,18.70
2023-05-07T00:32:52.321Z,18.70
2023-05-07T00:35:37.697Z,18.70
2023-05-07T00:38:23.531Z,18.70
2023-05-07T00:41:09.286Z,18.70
2023-05-07T00:43:55.212Z,18.70
2023-05-07T00:46:41.463Z,18.60
2023-05-07T00:49:31.034Z,18.70
2023-05-07T00:52:17.534Z,18.60
2023-05-07T00:55:07.368Z,18.60
2023-05-07T00:57:53.410Z,18.50
2023-05-07T01:00:38.874Z,18.50
2023-05-07T01:03:24.713Z,18.50
2023-05-07T01:06:13.692Z,18.50
2023-05-07T01:09:00.917Z,18.40
2023-05-07T01:11:47.130Z,18.40
2023-05-07T01:14:34.134Z,18.40
2023-05-07T01:17:20.249Z,18.40
2023-05-07T01:20:06.773Z,18.40
2023-05-07T01:22:53.180Z,18.40
2023-05-07T01:25:39.192Z,18.40
2023-05-07T01:28:26.049Z,18.40
2023-05-07T01:31:17.499Z,18.50
2023-05-07T01:34:04.650Z,18.50
2023-05-07T01:36:50.556Z,18.50
2023-05-07T01:39:37.171Z,18.40
2023-05-07T01:42:22.834Z,18.40
2023-05-07T01:45:08.429Z,18.40
2023-05-07T01:47:54.452Z,18.40
2023-05-07T01:50:40.384Z,18.30
2023-05-07T01:53:28.217Z,18.30
2023-05-07T01:56:14.184Z,18.40
2023-05-07T01:59:02.028Z,18.30
2023-05-07T02:01:48.656Z,18.30
2023-05-07T02:04:34.455Z,18.30
2023-05-07T02:07:20.748Z,18.30
2023-05-07T02:10:07.253Z,18.20
2023-05-07T02:12:53.038Z,18.20
2023-05-07T02:15:38.865Z,18.20
2023-05-07T02:18:24.276Z,18.10
2023-05-07T02:21:10.041Z,18.10
2023-05-07T02:23:56.293Z,18.00
2023-05-07T02:26:42.475Z,18.00
2023-05-07T02:29:28.159Z,17.90
2023-05-07T02:32:14.113Z,17.90
2023-05-07T02:35:00.243Z,17.80
2023-05-07T02:37:46.197Z,17.80
2023-05-07T02:40:34.732Z,17.70
2023-05-07T02:43:20.704Z,17.80
2023-05-07T02:46:09.351Z,17.80
2023-05-07T02:48:58.739Z,17.80
2023-05-07T02:51:44.729Z,17.80
2023-05-07T02:54:37.096Z,17.80
2023-05-07T02:57:22.790Z,17.80
2023-05-07T03:00:15.303Z,17.90
2023-05-07T03:03:07.987Z,17.90
2023-05-07T03:05:53.610Z,17.80
2023-05-07T03:08:39.531Z,17.80
2023-05-07T03:11:25.455Z,17.80
2023-05-07T03:14:11.321Z,17.80
2023-05-07T03:16:57.772Z,17.70
2023-05-07T03:19:43.383Z,17.80
2023-05-07T03:22:29.259Z,17.80
2023-05-07T03:25:15.965Z,17.80
2023-05-07T03:28:01.294Z,17.80
2023-05-07T03:30:56.004Z,17.80
2023-05-07T03:33:55.554Z,17.80
2023-05-07T03:36:40.993Z,17.80
2023-05-07T03:39:29.271Z,17.80
2023-05-07T03:42:14.898Z,17.80
2023-05-07T03:45:00.724Z,17.80
2023-05-07T03:47:46.254Z,17.80
2023-05-07T03:50:36.470Z,17.70
2023-05-07T03:53:22.770Z,17.70
2023-05-07T03:56:08.586Z,17.60
2023-05-07T03:58:56.882Z,17.60
2023-05-07T04:01:42.654Z,17.60
2023-05-07T04:04:34.762Z,17.50
2023-05-07T04:07:20.866Z,17.50
2023-05-07T04:10:09.695Z,17.50
2023-05-07T04:12:58.647Z,17.50
2023-05-07T04:15:47.522Z,17.40
2023-05-07T04:18:35.320Z,17.40
2023-05-07T04:21:21.765Z,17.40
2023-05-07T04:24:09.860Z,17.40
2023-05-07T04:26:56.137Z,17.40
2023-05-07T04:29:43.430Z,17.50
2023-05-07T04:32:32.832Z,17.50
2023-05-07T04:35:19.947Z,17.50
2023-05-07T04:38:06.526Z,17.60
2023-05-07T04:40:52.474Z,17.00
2023-05-07T04:43:44.008Z,17.60
2023-05-07T04:46:32.190Z,17.70
2023-05-07T04:49:17.607Z,17.70
2023-05-07T04:52:04.533Z,17.80
2023-05-07T04:54:51.212Z,17.90
2023-05-07T04:57:36.756Z,17.90
2023-05-07T05:00:23.961Z,18.00
2023-05-07T05:03:12.319Z,18.10
2023-05-07T05:06:00.529Z,18.20
2023-05-07T05:08:50.229Z,18.30
2023-05-07T05:11:36.135Z,18.50
2023-05-07T05:14:21.894Z,18.70
2023-05-07T05:17:07.538Z,18.90
2023-05-07T05:19:56.332Z,19.40
2023-05-07T05:22:43.617Z,19.90
2023-05-07T05:25:30.694Z,20.20
2023-05-07T05:28:17.923Z,20.40
2023-05-07T05:31:03.874Z,20.60
2023-05-07T05:33:52.680Z,20.70
2023-05-07T05:36:38.282Z,20.90
2023-05-07T05:39:24.310Z,20.80
2023-05-07T05:42:10.111Z,20.70
2023-05-07T05:44:55.757Z,20.70
2023-05-07T05:47:42.326Z,20.70
2023-05-07T05:50:28.089Z,20.70
2023-05-07T05:53:14.400Z,20.70
2023-05-07T05:56:00.449Z,20.80
2023-05-07T05:58:46.446Z,20.80
2023-05-07T06:01:32.563Z,20.80
2023-05-07T06:04:21.358Z,20.90
2023-05-07T06:07:07.306Z,21.00
2023-05-07T06:09:53.866Z,21.10
2023-05-07T06:12:40.885Z,21.10
2023-05-07T06:15:26.889Z,21.10
2023-05-07T06:18:12.874Z,21.20
2023-05-07T06:20:59.461Z,21.40
2023-05-07T06:23:48.784Z,21.50
2023-05-07T06:26:34.509Z,21.60
2023-05-07T06:29:20.177Z,21.80
2023-05-07T06:32:13.141Z,22.00
2023-05-07T06:35:01.238Z,22.20
2023-05-07T06:37:47.062Z,22.40
2023-05-07T06:40:37.869Z,22.70
2023-05-07T06:43:23.603Z,23.00
2023-05-07T06:46:32.570Z,23.20
2023-05-07T06:49:18.262Z,23.50
2023-05-07T06:52:04.825Z,23.80
2023-05-07T06:54:50.783Z,23.90
2023-05-07T06:57:39.433Z,24.00
2023-05-07T07:00:25.418Z,24.20
2023-05-07T07:03:14.438Z,24.40
2023-05-07T07:06:00.580Z,24.60
2023-05-07T07:08:46.558Z,24.70
2023-05-07T07:11:34.217Z,24.90
2023-05-07T07:14:19.968Z,25.00
2023-05-07T07:17:09.194Z,25.10
2023-05-07T07:19:55.037Z,25.30
2023-05-07T07:22:40.860Z,25.40
2023-05-07T07:25:26.732Z,25.60
2023-05-07T07:28:12.763Z,25.80
2023-05-07T07:30:58.337Z,25.90
2023-05-07T07:33:44.145Z,26.00
2023-05-07T07:36:42.351Z,26.10
2023-05-07T07:39:34.013Z,26.00
2023-05-07T07:42:20.142Z,25.80
2023-05-07T07:45:06.035Z,25.70
2023-05-07T07:47:54.831Z,25.90
2023-05-07T07:50:45.150Z,26.00
2023-05-07T07:53:33.167Z,25.90
2023-05-07T07:56:19.369Z,26.10
2023-05-07T07:59:04.934Z,26.30
2023-05-07T08:01:55.519Z,26.40
2023-05-07T08:04:44.357Z,26.50
2023-05-07T08:07:30.177Z,26.40
2023-05-07T08:10:22.179Z,26.60
2023-05-07T08:13:11.421Z,26.60
2023-05-07T08:15:59.432Z,26.70
2023-05-07T08:18:45.353Z,26.80
2023-05-07T08:21:33.772Z,26.80
2023-05-07T08:24:20.741Z,27.00
2023-05-07T08:27:06.738Z,27.40
2023-05-07T08:29:52.768Z,27.40
2023-05-07T08:32:40.154Z,27.80
2023-05-07T08:35:26.827Z,28.00
2023-05-07T08:38:13.212Z,28.00
2023-05-07T08:40:59.412Z,28.10
2023-05-07T08:43:51.412Z,27.80
2023-05-07T08:46:37.961Z,27.90
2023-05-07T08:49:23.691Z,27.60
2023-05-07T08:52:10.405Z,27.10
2023-05-07T08:54:57.571Z,26.90
2023-05-07T08:57:43.991Z,26.90
2023-05-07T09:00:31.117Z,26.30
2023-05-07T09:03:18.225Z,26.20
2023-05-07T09:06:07.844Z,26.50
2023-05-07T09:08:56.738Z,27.00
2023-05-07T09:11:45.876Z,27.20
2023-05-07T09:14:34.393Z,27.40
2023-05-07T09:17:21.980Z,27.50
2023-05-07T09:20:10.126Z,27.60
2023-05-07T09:22:57.362Z,27.80
2023-05-07T09:25:44.489Z,27.80
2023-05-07T09:28:38.762Z,27.70
2023-05-07T09:31:26.153Z,27.50
2023-05-07T09:34:14.045Z,27.40
2023-05-07T09:37:03.517Z,27.50
2023-05-07T09:39:50.652Z,27.40
2023-05-07T09:42:40.181Z,27.40
2023-05-07T09:45:26.971Z,27.50
2023-05-07T09:48:14.038Z,27.60
2023-05-07T09:51:02.585Z,27.80
2023-05-07T09:53:51.565Z,27.70
2023-05-07T09:56:38.881Z,27.70
2023-05-07T09:59:25.631Z,27.70
2023-05-07T10:02:12.079Z,27.70
2023-05-07T10:05:05.473Z,27.50
2023-05-07T10:07:53.972Z,27.30
2023-05-07T10:10:41.557Z,27.10
2023-05-07T10:13:31.087Z,26.60
2023-05-07T10:16:18.718Z,26.30
2023-05-07T10:19:08.015Z,26.30
2023-05-07T10:22:00.434Z,26.30
2023-05-07T10:24:48.910Z,26.20
2023-05-07T10:27:37.324Z,26.00
2023-05-07T10:30:28.148Z,26.20
2023-05-07T10:33:16.656Z,26.30
2023-05-07T10:36:05.634Z,26.40
2023-05-07T10:38:52.713Z,26.10
2023-05-07T10:41:38.758Z,25.90
2023-05-07T10:44:28.928Z,25.90
2023-05-07T10:47:17.433Z,25.90
2023-05-07T10:50:05.187Z,26.10
2023-05-07T10:53:15.470Z,26.20
2023-05-07T10:56:22.459Z,26.30
2023-05-07T10:59:31.774Z,26.30
2023-05-07T11:02:22.714Z,26.30
2023-05-07T11:05:20.437Z,26.30
2023-05-07T11:08:07.640Z,26.50
2023-05-07T11:11:01.170Z,26.40
2023-05-07T11:14:05.957Z,26.20
2023-05-07T11:17:06.000Z,26.10
2023-05-07T11:19:53.264Z,26.20
2023-05-07T11:23:01.281Z,26.30
2023-05-07T11:26:15.928Z,26.40
2023-05-07T11:29:03.219Z,26.50
2023-05-07T11:31:52.777Z,26.70
2023-05-07T11:34:40.300Z,26.70
2023-05-07T11:37:26.263Z,26.80
2023-05-07T11:40:23.243Z,26.80
2023-05-07T11:43:12.297Z,26.60
2023-05-07T11:46:06.285Z,26.40
2023-05-07T11:48:52.119Z,26.40
2023-05-07T11:51:37.550Z,26.30
2023-05-07T11:54:23.327Z,26.40
2023-05-07T11:57:15.798Z,26.40
2023-05-07T12:00:03.104Z,26.50
2023-05-07T12:03:03.574Z,26.50
2023-05-07T12:05:49.882Z,26.50
2023-05-07T12:08:37.917Z,26.50
2023-05-07T12:11:25.001Z,26.40
2023-05-07T12:14:12.248Z,26.50
2023-05-07T12:16:58.396Z,26.60
2023-05-07T12:19:44.289Z,26.70
2023-05-07T12:22:33.178Z,26.80
2023-05-07T12:25:20.208Z,26.70
2023-05-07T12:28:06.342Z,26.70
2023-05-07T12:30:52.298Z,26.60
2023-05-07T12:33:38.028Z,26.50
2023-05-07T12:36:23.671Z,26.60
2023-05-07T12:39:09.825Z,26.70
2023-05-07T12:41:59.743Z,26.70
2023-05-07T12:44:46.748Z,26.80
2023-05-07T12:47:33.547Z,26.50
2023-05-07T12:50:19.442Z,26.50
2023-05-07T12:53:07.062Z,26.40
2023-05-07T12:55:54.347Z,26.40
2023-05-07T12:58:39.762Z,26.50
2023-05-07T13:01:29.813Z,26.70
2023-05-07T13:04:15.283Z,26.90
2023-05-07T13:07:04.239Z,27.00
2023-05-07T13:09:49.834Z,27.00
2023-05-07T13:12:36.116Z,26.90
2023-05-07T13:15:22.761Z,26.80
2023-05-07T13:18:08.355Z,26.70
2023-05-07T13:20:54.805Z,26.70
2023-05-07T13:23:40.783Z,26.70
2023-05-07T13:26:27.341Z,26.70
2023-05-07T13:29:13.098Z,26.60
2023-05-07T13:31:58.902Z,26.60
2023-05-07T13:34:44.474Z,26.80
2023-05-07T13:37:30.425Z,26.70
2023-05-07T13:40:16.300Z,26.50
2023-05-07T13:43:03.338Z,26.50
2023-05-07T13:45:49.160Z,26.40
2023-05-07T13:48:34.622Z,26.40
2023-05-07T13:51:20.471Z,26.30
2023-05-07T13:54:06.153Z,26.10
2023-05-07T13:56:51.803Z,26.20
2023-05-07T13:59:37.619Z,26.00
2023-05-07T14:02:23.252Z,25.80
2023-05-07T14:05:10.354Z,25.80
2023-05-07T14:07:58.249Z,26.00
2023-05-07T14:10:43.736Z,26.00
2023-05-07T14:13:31.517Z,25.90
2023-05-07T14:16:17.129Z,26.00
2023-05-07T14:19:03.076Z,26.10
2023-05-07T14:21:48.949Z,26.10
2023-05-07T14:24:38.032Z,26.00
2023-05-07T14:27:24.235Z,25.80
2023-05-07T14:30:09.862Z,25.70
2023-05-07T14:32:55.843Z,25.70
2023-05-07T14:35:41.101Z,25.70
2023-05-07T14:38:26.885Z,25.90
2023-05-07T14:41:12.711Z,25.80
2023-05-07T14:43:59.911Z,25.80
2023-05-07T14:46:45.530Z,25.80
2023-05-07T14:49:31.246Z,25.80
2023-05-07T14:52:17.172Z,25.90
2023-05-07T14:55:02.968Z,26.00
2023-05-07T14:57:48.785Z,26.20
2023-05-07T15:00:34.636Z,26.20
2023-05-07T15:03:20.674Z,26.30
2023-05-07T15:06:06.349Z,26.30
2023-05-07T15:08:51.981Z,26.20
2023-05-07T15:11:37.561Z,26.10
2023-05-07T15:14:23.868Z,26.00
2023-05-07T15:17:09.527Z,26.00
2023-05-07T15:19:55.352Z,26.10
2023-05-07T15:22:42.815Z,26.10
2023-05-07T15:25:29.160Z,26.10
2023-05-07T15:28:15.399Z,25.90
2023-05-07T15:31:01.308Z,25.90
2023-05-07T15:33:48.556Z,25.90
2023-05-07T15:36:34.644Z,25.80
2023-05-07T15:39:20.901Z,25.80
2023-05-07T15:42:07.510Z,25.60
2023-05-07T15:44:53.318Z,25.60
2023-05-07T15:47:38.950Z,25.50
2023-05-07T15:50:24.751Z,25.60
2023-05-07T15:53:10.755Z,25.60
2023-05-07T15:55:56.523Z,25.60
2023-05-07T15:58:42.135Z,25.60
2023-05-07T16:01:28.087Z,25.60
2023-05-07T16:04:13.908Z,25.60
2023-05-07T16:06:59.491Z,25.70
2023-05-07T16:09:45.447Z,25.70
2023-05-07T16:12:31.107Z,25.70
2023-05-07T16:15:16.434Z,25.80
2023-05-07T16:18:02.228Z,25.70
2023-05-07T16:20:48.633Z,25.70
2023-05-07T16:23:34.044Z,25.80
2023-05-07T16:26:19.821Z,25.90
2023-05-07T16:29:06.961Z,25.90
2023-05-07T16:31:53.597Z,26.00
2023-05-07T16:34:38.976Z,26.00
2023-05-07T16:37:24.961Z,26.00
2023-05-07T16:40:10.732Z,26.00
2023-05-07T16:42:56.366Z,26.00
2023-05-07T16:45:41.962Z,25.90
2023-05-07T16:48:27.558Z,25.80
2023-05-07T16:51:13.499Z,25.70
2023-05-07T16:53:58.717Z,25.60
2023-05-07T16:56:44.683Z,25.50
2023-05-07T16:59:32.396Z,25.50
2023-05-07T17:02:18.565Z,25.40
2023-05-07T17:05:06.360Z,25.30
2023-05-07T17:07:52.291Z,25.20
2023-05-07T17:10:37.947Z,25.20
2023-05-07T17:13:23.472Z,25.10
2023-05-07T17:16:09.439Z,25.10
2023-05-07T17:18:54.881Z,25.10
2023-05-07T17:21:40.686Z,25.00
2023-05-07T17:24:26.460Z,25.00
2023-05-07T17:27:12.351Z,25.00
2023-05-07T17:29:58.084Z,24.90
2023-05-07T17:32:43.925Z,24.90
2023-05-07T17:35:31.733Z,24.80
2023-05-07T17:38:17.274Z,24.80
2023-05-07T17:41:02.958Z,24.70
2023-05-07T17:43:48.545Z,24.70
2023-05-07T17:46:34.311Z,24.70
2023-05-07T17:49:20.244Z,24.60
2023-05-07T17:52:05.798Z,24.60
2023-05-07T17:54:51.273Z,24.50
2023-05-07T17:57:37.056Z,24.50
2023-05-07T18:00:22.918Z,24.40
2023-05-07T18:03:09.027Z,24.40
2023-05-07T18:05:54.391Z,24.30
2023-05-07T18:08:41.295Z,24.20
2023-05-07T18:11:28.176Z,24.20
2023-05-07T18:14:14.051Z,24.00
2023-05-07T18:16:59.746Z,24.00
2023-05-07T18:19:45.591Z,24.00
2023-05-07T18:22:31.188Z,23.90
2023-05-07T18:25:16.749Z,23.80
2023-05-07T18:28:02.449Z,23.70
2023-05-07T18:30:48.285Z,23.70
2023-05-07T18:33:34.297Z,23.60
2023-05-07T18:36:20.326Z,23.50
2023-05-07T18:39:06.531Z,23.40
2023-05-07T18:41:53.187Z,23.30
2023-05-07T18:44:39.026Z,23.20
2023-05-07T18:47:24.957Z,23.10
2023-05-07T18:50:10.874Z,23.10
2023-05-07T18:52:56.565Z,23.00
2023-05-07T18:55:46.169Z,22.90
2023-05-07T18:58:31.866Z,22.80
2023-05-07T19:01:17.305Z,22.70
2023-05-07T19:04:04.380Z,22.70
2023-05-07T19:06:50.013Z,22.60
2023-05-07T19:09:35.791Z,22.60
2023-05-07T19:12:21.425Z,22.50
2023-05-07T19:15:07.522Z,22.50
2023-05-07T19:17:54.448Z,22.40
2023-05-07T19:20:40.032Z,22.40
2023-05-07T19:23:26.045Z,22.30
2023-05-07T19:26:12.302Z,22.30
2023-05-07T19:31:46.051Z,22.30
2023-05-07T19:34:31.668Z,22.20
2023-05-07T19:37:17.316Z,22.20
2023-05-07T19:40:05.337Z,22.20
2023-05-07T19:42:50.709Z,22.10
2023-05-07T19:45:37.596Z,22.10
2023-05-07T19:48:23.500Z,22.10
2023-05-07T19:51:10.776Z,22.00
2023-05-07T19:53:56.655Z,22.00
2023-05-07T19:56:42.510Z,21.90
2023-05-07T19:59:28.199Z,21.90
2023-05-07T20:02:13.784Z,21.80
2023-05-07T20:04:59.476Z,21.80
2023-05-07T20:07:46.318Z,21.80
2023-05-07T20:10:32.089Z,21.70
2023-05-07T20:13:18.499Z,21.70
2023-05-07T20:16:04.410Z,21.60
2023-05-07T20:18:50.082Z,21.60
2023-05-07T20:21:35.458Z,21.50
2023-05-07T20:24:21.312Z,21.50
2023-05-07T20:27:07.031Z,21.50
2023-05-07T20:29:53.520Z,21.50
2023-05-07T20:32:39.403Z,21.40
2023-05-07T20:35:26.081Z,21.40
2023-05-07T20:38:11.806Z,21.40
2023-05-07T20:40:57.335Z,21.40
2023-05-07T20:43:43.508Z,21.30
2023-05-07T20:46:30.271Z,21.30
2023-05-07T20:49:16.570Z,21.20
2023-05-07T20:52:01.958Z,21.20
2023-05-07T20:54:49.995Z,21.10
2023-05-07T20:57:36.148Z,21.10
2023-05-07T21:00:21.435Z,21.10
2023-05-07T21:03:07.286Z,20.90
2023-05-07T21:05:53.035Z,20.90
2023-05-07T21:08:38.614Z,20.80
2023-05-07T21:11:24.005Z,20.80
2023-05-07T21:14:09.832Z,20.70
2023-05-07T21:16:57.822Z,20.60
2023-05-07T21:19:43.578Z,20.60
2023-05-07T21:22:29.047Z,20.60
2023-05-07T21:25:14.677Z,20.60
2023-05-07T21:28:00.717Z,20.50
2023-05-07T21:30:46.138Z,20.50
2023-05-07T21:33:32.154Z,20.40
2023-05-07T21:36:18.800Z,20.50
2023-05-07T21:39:04.760Z,20.50
2023-05-07T21:41:50.605Z,20.40
2023-05-07T21:44:36.331Z,20.40
2023-05-07T21:47:22.157Z,20.40
2023-05-07T21:50:08.029Z,20.30
2023-05-07T21:52:53.603Z,20.30
2023-05-07T21:55:39.352Z,20.30
2023-05-07T21:58:24.873Z,20.30
2023-05-07T22:01:12.774Z,20.30
2023-05-07T22:03:58.818Z,20.30
2023-05-07T22:06:44.332Z,20.30
2023-05-07T22:09:30.288Z,20.40
2023-05-07T22:12:15.822Z,20.30
2023-05-07T22:15:01.655Z,20.30
2023-05-07T22:17:47.732Z,20.40
2023-05-07T22:20:33.518Z,20.40
2023-05-07T22:23:19.111Z,20.40
2023-05-07T22:26:09.783Z,20.40
2023-05-07T22:28:55.351Z,20.30
2023-05-07T22:31:41.401Z,20.30
2023-05-07T22:34:27.475Z,21.80
2023-05-07T22:37:12.991Z,20.30
2023-05-07T22:39:58.841Z,20.30
2023-05-07T22:42:44.608Z,20.30
2023-05-07T22:45:30.167Z,20.30
2023-05-07T22:48:15.898Z,20.30
2023-05-07T22:51:01.856Z,20.30
2023-05-07T22:53:47.664Z,20.30
2023-05-07T22:56:33.927Z,20.20
2023-05-07T22:59:19.789Z,20.20
2023-05-07T23:02:05.939Z,20.20
2023-05-07T23:04:51.601Z,20.20
2023-05-07T23:07:37.352Z,20.20
2023-05-07T23:10:22.905Z,20.00
2023-05-07T23:13:15.261Z,20.00
2023-05-07T23:16:00.845Z,20.00
2023-05-07T23:18:46.662Z,20.00
2023-05-07T23:21:32.035Z,20.00
2023-05-07T23:24:17.519Z,19.90
2023-05-07T23:27:06.764Z,19.90
2023-05-07T23:29:52.102Z,19.80
2023-05-07T23:32:37.985Z,19.80
2023-05-07T23:35:23.635Z,19.70
2023-05-07T23:38:09.246Z,19.70
2023-05-07T23:40:55.386Z,19.60
2023-05-07T23:43:41.263Z,19.60
2023-05-07T23:46:27.164Z,19.60
2023-05-07T23:49:13.113Z,19.50
2023-05-07T23:51:58.815Z,19.60
2023-05-07T23:54:45.152Z,19.60
2023-05-07T23:57:31.410Z,19.60
